Time;durP1;ratioP1;P1;durP2;ratioP2;P2;SDS_P1;SDS_P2;PMS_P1;PMS_P2;Temp;Humidity;BMP_temperature;BMP_pressure;BME280_temperature;BME280_humidity;BME280_pressure;Samples;Min_cycle;Max_cycle;Signal;HPM_P1;HPM_P2
2024/04/19 00:00:09;;;;;;;6.67;3.07;;;;;;;20.31;58.11;97587.63;5371907;26;20267;-28
2024/04/19 00:02:36;;;;;;;6.10;2.60;;;;;;;20.32;57.55;97581.75;5362746;26;20324;-28
2024/04/19 00:05:03;;;;;;;4.73;2.53;;;;;;;20.32;57.44;97575.75;5359470;26;20356;-26
2024/04/19 00:07:30;;;;;;;3.90;3.00;;;;;;;20.32;57.94;97576.63;5352637;26;20264;-27
2024/04/19 00:09:57;;;;;;;5.97;2.70;;;;;;;20.31;57.98;97571.47;5367700;26;20240;-26
2024/04/19 00:12:23;;;;;;;5.13;2.90;;;;;;;20.30;57.65;97567.16;5368140;26;20656;-26
2024/04/19 00:14:50;;;;;;;4.30;2.33;;;;;;;20.31;57.90;97569.78;5354153;26;20237;-27
2024/04/19 00:17:16;;;;;;;4.80;2.47;;;;;;;20.29;57.79;97571.44;5356344;26;20240;-38
2024/04/19 00:19:43;;;;;;;6.23;3.10;;;;;;;20.30;57.39;97568.06;5359130;26;20274;-28
2024/04/19 00:22:10;;;;;;;7.27;2.83;;;;;;;20.30;57.64;97573.16;5351271;26;20229;-29
2024/04/19 00:24:36;;;;;;;4.13;2.70;;;;;;;20.29;57.75;97566.31;5361636;26;20270;-27
2024/04/19 00:27:03;;;;;;;6.53;2.60;;;;;;;20.30;57.64;97562.06;5366972;26;20247;-26
2024/04/19 00:29:30;;;;;;;5.60;2.40;;;;;;;20.29;57.97;97558.66;5357347;26;20228;-35
2024/04/19 00:31:57;;;;;;;5.17;2.30;;;;;;;20.29;57.45;97555.22;5360707;26;20256;-27
2024/04/19 00:34:23;;;;;;;4.43;2.47;;;;;;;20.29;57.57;97558.66;5362300;26;20668;-28
2024/04/19 00:36:50;;;;;;;5.67;2.70;;;;;;;20.29;57.63;97547.56;5364381;26;20299;-26
2024/04/19 00:39:17;;;;;;;6.57;2.73;;;;;;;20.28;57.48;97546.69;5356917;26;20232;-28
2024/04/19 00:41:43;;;;;;;7.00;2.40;;;;;;;20.21;57.46;97531.13;5356114;26;20612;-26
2024/04/19 00:44:10;;;;;;;4.33;2.30;;;;;;;20.28;57.69;97546.69;5362754;26;20287;-26
2024/04/19 00:46:37;;;;;;;3.53;2.40;;;;;;;20.27;58.00;97539.88;5356203;26;20251;-26
2024/04/19 00:49:03;;;;;;;3.33;2.07;;;;;;;20.26;57.54;97533.03;5370149;26;20231;-28
2024/04/19 00:51:32;;;;;;;3.97;2.30;;;;;;;20.28;57.44;97538.19;5356463;26;20235;-28
2024/04/19 00:53:58;;;;;;;5.67;2.40;;;;;;;20.27;57.54;97539.88;5357555;26;20236;-27
2024/04/19 00:56:25;;;;;;;5.27;2.57;;;;;;;20.29;57.69;97540.81;5350587;26;20857;-27
2024/04/19 00:58:52;;;;;;;4.30;2.60;;;;;;;20.29;57.97;97543.34;5364617;26;20810;-31
2024/04/19 01:01:18;;;;;;;6.23;2.60;;;;;;;20.30;57.65;97547.63;5357734;26;20256;-27
2024/04/19 01:03:46;;;;;;;5.87;2.57;;;;;;;20.31;57.98;97533.19;5356387;26;20322;-33
2024/04/19 01:06:12;;;;;;;3.87;2.20;;;;;;;20.30;57.48;97537.41;5353606;26;20633;-26
2024/04/19 01:08:39;;;;;;;4.20;2.30;;;;;;;20.31;57.84;97536.59;5346754;26;20331;-27
2024/04/19 01:11:06;;;;;;;6.37;2.70;;;;;;;20.31;57.83;97538.31;5366708;26;20270;-29
2024/04/19 01:13:33;;;;;;;4.47;2.20;;;;;;;20.30;57.72;97534.88;5360344;26;20236;-27
2024/04/19 01:16:00;;;;;;;3.80;2.20;;;;;;;20.31;57.67;97534.03;5358534;26;20248;-35
2024/04/19 01:18:27;;;;;;;5.63;2.30;;;;;;;20.30;57.19;97542.53;5356513;26;20276;-27
2024/04/19 01:20:54;;;;;;;2.57;2.17;;;;;;;20.30;57.33;97539.97;5364671;26;20240;-27
2024/04/19 01:23:20;;;;;;;4.27;2.60;;;;;;;20.27;57.67;97528.78;5370500;26;20252;-28
2024/04/19 01:25:48;;;;;;;5.20;2.33;;;;;;;20.28;57.25;97531.38;5365069;26;20237;-31
2024/04/19 01:28:15;;;;;;;4.07;2.53;;;;;;;20.29;57.88;97539.91;5347193;26;20252;-28
2024/04/19 01:30:43;;;;;;;5.07;2.47;;;;;;;20.29;57.81;97532.25;5366430;26;20745;-27
2024/04/19 01:33:10;;;;;;;5.47;2.47;;;;;;;20.28;57.40;97533.94;5360110;26;20333;-28
2024/04/19 01:35:37;;;;;;;2.93;2.10;;;;;;;20.27;57.74;97539.00;5371965;26;20344;-27
2024/04/19 01:38:03;;;;;;;5.30;2.60;;;;;;;20.28;57.79;97530.53;5366799;26;20233;-30
2024/04/19 01:40:30;;;;;;;5.37;2.53;;;;;;;20.28;57.54;97533.94;5360636;26;20282;-30
2024/04/19 01:42:57;;;;;;;2.90;2.30;;;;;;;20.27;57.72;97528.78;5367878;26;20235;-26
2024/04/19 01:45:23;;;;;;;3.10;1.90;;;;;;;20.27;57.64;97528.78;5369288;26;20235;-28
2024/04/19 01:47:50;;;;;;;3.60;2.07;;;;;;;20.19;57.70;97510.66;5369527;26;20611;-26
2024/04/19 01:50:17;;;;;;;4.17;2.53;;;;;;;20.26;57.85;97533.03;5374774;26;20283;-24
2024/04/19 01:52:46;;;;;;;4.37;2.33;;;;;;;20.25;57.34;97515.97;5365831;26;20235;-29
2024/04/19 01:55:14;;;;;;;3.60;2.40;;;;;;;20.26;57.32;97522.84;5372604;26;20328;-26
2024/04/19 01:57:41;;;;;;;2.70;2.07;;;;;;;20.25;57.37;97518.53;5379691;26;20235;-25
2024/04/19 02:00:08;;;;;;;3.87;2.43;;;;;;;20.27;57.36;97524.56;5383233;26;20328;-33
2024/04/19 02:02:35;;;;;;;4.00;2.53;;;;;;;20.28;57.33;97515.22;5389957;26;20296;-27
2024/04/19 02:05:02;;;;;;;2.27;2.07;;;;;;;20.28;57.75;97513.53;5370982;26;20474;-26
2024/04/19 02:07:28;;;;;;;2.50;2.10;;;;;;;20.28;57.73;97513.53;5369704;26;20231;-29
2024/04/19 02:09:55;;;;;;;4.40;2.47;;;;;;;20.28;57.31;97513.53;5380221;26;20231;-27
2024/04/19 02:12:22;;;;;;;4.93;2.37;;;;;;;20.27;57.40;97504.13;5367418;26;20227;-30
2024/04/19 02:14:49;;;;;;;3.27;2.13;;;;;;;20.26;57.68;97497.31;5364646;26;20342;-26
2024/04/19 02:17:16;;;;;;;3.77;2.10;;;;;;;20.27;57.67;97498.16;5376028;26;20227;-27
2024/04/19 02:19:43;;;;;;;2.80;1.97;;;;;;;20.25;57.75;97500.66;5368653;26;20236;-26
2024/04/19 02:22:10;;;;;;;2.83;2.10;;;;;;;20.26;57.69;97488.78;5379857;26;20590;-25
2024/04/19 02:24:37;;;;;;;3.73;2.40;;;;;;;20.25;57.90;97500.66;5380603;26;20755;-26
2024/04/19 02:27:06;;;;;;;4.23;2.20;;;;;;;20.26;57.33;97483.66;5359688;26;20245;-28
2024/04/19 02:32:18;;;;;;;2.23;2.00;;;;;;;20.25;57.18;97481.94;5379320;26;20797;-28
2024/04/19 02:34:45;;;;;;;3.47;2.37;;;;;;;20.24;57.42;97483.63;5372774;26;20236;-25
2024/04/19 02:37:13;;;;;;;3.30;2.13;;;;;;;20.25;57.90;97481.94;5355729;26;20789;-35
2024/04/19 02:39:40;;;;;;;5.07;2.30;;;;;;;20.24;57.68;97481.06;5362797;26;20297;-27
2024/04/19 02:42:07;;;;;;;3.37;2.27;;;;;;;20.24;57.59;97486.19;5365535;26;20244;-27
2024/04/19 02:44:34;;;;;;;3.93;2.53;;;;;;;20.17;57.74;97463.84;5368406;26;20280;-28
2024/04/19 02:47:00;;;;;;;2.97;2.43;;;;;;;20.18;57.84;97468.09;5361686;26;20577;-27
2024/04/19 02:49:27;;;;;;;1.80;1.70;;;;;;;20.25;57.48;97480.25;5361591;26;20239;-27
2024/04/19 02:51:54;;;;;;;2.43;2.10;;;;;;;20.24;58.20;97481.06;5370255;26;20232;-27
2024/04/19 02:54:20;;;;;;;2.90;2.20;;;;;;;20.24;57.50;97477.63;5367137;26;20252;-28
2024/04/19 02:56:47;;;;;;;2.07;1.93;;;;;;;20.25;57.86;97464.09;5373755;26;20252;-27
2024/04/19 02:59:14;;;;;;;2.23;1.77;;;;;;;20.25;57.35;97461.53;5377375;26;20239;-28
2024/04/19 03:01:41;;;;;;;2.53;2.00;;;;;;;20.27;57.26;97459.88;5364267;26;20236;-29
2024/04/19 03:04:08;;;;;;;2.33;1.87;;;;;;;20.28;57.80;97461.63;5364257;26;20286;-26
2024/04/19 03:06:35;;;;;;;2.20;2.00;;;;;;;20.28;57.25;97457.38;5365234;26;20236;-27
2024/04/19 03:09:02;;;;;;;3.90;2.37;;;;;;;20.26;57.87;97447.94;5382431;26;20286;-25
2024/04/19 03:11:29;;;;;;;2.10;1.90;;;;;;;20.28;57.23;97451.44;5365992;26;20281;-29
2024/04/19 03:13:56;;;;;;;2.40;2.00;;;;;;;20.23;57.59;97440.19;5379559;26;20657;-30
2024/04/19 03:16:23;;;;;;;2.03;1.83;;;;;;;20.27;57.54;97448.00;5361935;26;20294;-26
2024/04/19 03:18:49;;;;;;;2.90;2.00;;;;;;;20.26;57.41;97443.72;5361654;26;20747;-29
2024/04/19 03:21:16;;;;;;;1.97;1.77;;;;;;;20.20;57.80;97433.31;5366613;26;20232;-26
2024/04/19 03:23:43;;;;;;;3.10;2.00;;;;;;;20.26;57.31;97427.53;5371590;26;20739;-27
2024/04/19 03:26:10;;;;;;;3.47;2.17;;;;;;;20.26;57.59;97430.09;5362676;26;20567;-26
2024/04/19 03:28:36;;;;;;;2.53;1.90;;;;;;;20.24;57.70;97427.47;5364437;26;20237;-27
2024/04/19 03:31:06;;;;;;;2.60;2.17;;;;;;;20.26;57.65;97427.53;5368577;26;20235;-26
2024/04/19 03:33:33;;;;;;;2.20;1.90;;;;;;;20.26;57.85;97427.53;5369611;26;20286;-26
2024/04/19 03:36:05;;;;;;;1.90;1.80;;;;;;;20.24;57.34;97416.41;5368559;26;20624;-26
2024/04/19 03:38:32;;;;;;;2.23;1.83;;;;;;;20.25;57.78;97415.59;5365021;26;20283;-28
2024/04/19 03:40:58;;;;;;;3.17;1.93;;;;;;;20.24;57.31;97412.16;5378598;26;20354;-27
2024/04/19 03:43:25;;;;;;;2.50;2.10;;;;;;;20.24;57.87;97409.63;5367176;26;20229;-26
2024/04/19 03:45:52;;;;;;;2.23;1.83;;;;;;;20.25;57.33;97413.06;5364299;26;20318;-25
2024/04/19 03:48:19;;;;;;;2.13;1.93;;;;;;;20.24;57.71;97406.19;5366322;26;20228;-26
2024/04/19 03:50:46;;;;;;;1.90;1.70;;;;;;;20.23;58.00;97407.91;5354766;26;20235;-27
2024/04/19 03:53:13;;;;;;;2.77;2.00;;;;;;;20.23;57.29;97413.00;5378774;26;20231;-27
2024/04/19 03:55:40;;;;;;;3.60;1.93;;;;;;;20.23;57.84;97415.56;5370520;26;20237;-26
2024/04/19 03:58:06;;;;;;;2.83;2.13;;;;;;;20.23;57.25;97413.00;5370839;26;20267;-27
2024/04/19 04:00:38;;;;;;;2.67;2.00;;;;;;;20.25;57.90;97411.34;5374829;26;20240;-29
2024/04/19 04:03:05;;;;;;;3.60;1.97;;;;;;;20.26;57.90;97417.31;5365045;26;20701;-26
2024/04/19 04:05:33;;;;;;;2.60;1.93;;;;;;;20.26;57.90;97404.56;5371112;26;20852;-29
2024/04/19 04:08:00;;;;;;;5.27;2.10;;;;;;;20.29;57.26;97407.22;5373179;26;20231;-28
2024/04/19 04:10:26;;;;;;;2.23;2.03;;;;;;;20.28;57.37;97408.88;5379883;26;20231;-28
2024/04/19 04:12:53;;;;;;;2.03;1.80;;;;;;;20.29;57.31;97397.88;5363879;26;20240;-28
2024/04/19 04:15:23;;;;;;;2.77;2.07;;;;;;;20.28;57.83;97402.94;5364762;26;20647;-26
2024/04/19 04:17:50;;;;;;;2.73;2.07;;;;;;;20.26;57.42;97397.78;5370114;26;21032;-31
2024/04/19 04:20:17;;;;;;;2.30;1.83;;;;;;;20.29;57.39;97402.13;5377144;26;20266;-37
2024/04/19 04:22:43;;;;;;;3.90;2.00;;;;;;;20.29;57.83;97392.78;5380118;26;20244;-26
2024/04/19 04:25:10;;;;;;;2.10;2.00;;;;;;;20.28;57.33;97401.22;5368456;26;20330;-27
2024/04/19 04:27:37;;;;;;;3.07;2.00;;;;;;;20.30;57.50;97398.72;5376297;26;20227;-27
2024/04/19 04:30:05;;;;;;;2.17;1.97;;;;;;;20.30;57.88;97398.72;5366889;26;20274;-25
2024/04/19 04:32:32;;;;;;;2.30;2.10;;;;;;;20.31;57.32;97400.50;5352840;26;20283;-26
2024/04/19 04:34:59;;;;;;;2.13;1.93;;;;;;;20.31;57.45;97392.84;5361566;26;20236;-26
2024/04/19 04:37:28;;;;;;;4.43;2.00;;;;;;;20.32;57.54;97397.09;5380746;26;20228;-27
2024/04/19 04:39:55;;;;;;;2.67;2.13;;;;;;;20.31;57.60;97391.13;5360357;26;20236;-28
2024/04/19 04:42:22;;;;;;;2.10;1.90;;;;;;;20.32;57.24;97395.44;5368928;26;20240;-27
2024/04/19 04:44:48;;;;;;;2.57;1.90;;;;;;;20.32;57.96;97392.88;5364816;26;20266;-24
2024/04/19 04:47:15;;;;;;;2.47;1.90;;;;;;;20.32;57.34;97394.56;5364280;26;20233;-27
2024/04/19 04:49:42;;;;;;;2.17;1.83;;;;;;;20.31;57.41;97392.84;5380035;26;20794;-27
2024/04/19 04:52:08;;;;;;;3.40;2.00;;;;;;;20.32;57.23;97390.34;5371981;26;20239;-28
2024/04/19 04:54:35;;;;;;;2.23;2.00;;;;;;;20.24;57.34;97380.69;5359779;26;20566;-35
2024/04/19 04:57:07;;;;;;;2.93;2.10;;;;;;;20.31;57.77;97390.28;5359999;26;20228;-28
2024/04/19 04:59:34;;;;;;;2.50;2.17;;;;;;;20.31;57.80;97391.13;5375049;26;20240;-26
2024/04/19 05:02:03;;;;;;;3.07;2.00;;;;;;;20.32;57.69;97385.22;5357077;26;20236;-26
2024/04/19 05:04:30;;;;;;;3.10;1.90;;;;;;;20.33;57.15;97380.97;5372355;26;20291;-32
2024/04/19 05:06:57;;;;;;;2.13;1.87;;;;;;;20.33;57.40;97379.28;5370837;26;20236;-27
2024/04/19 05:09:23;;;;;;;2.10;1.90;;;;;;;20.34;56.89;97381.00;5366192;26;20272;-27
2024/04/19 05:11:50;;;;;;;3.70;2.33;;;;;;;20.34;57.64;97375.06;5350817;26;20235;-28
2024/04/19 05:14:17;;;;;;;2.33;2.13;;;;;;;20.32;57.70;97382.69;5373786;26;20231;-27
2024/04/19 05:16:43;;;;;;;3.53;1.90;;;;;;;20.33;57.55;97373.31;5380545;26;20737;-26
2024/04/19 05:19:10;;;;;;;3.17;2.00;;;;;;;20.33;57.59;97371.63;5374842;26;20394;-37
2024/04/19 05:21:37;;;;;;;3.97;2.70;;;;;;;20.32;56.44;97381.78;5379327;26;20273;-28
2024/04/19 05:24:04;;;;;;;4.17;3.37;;;;;;;20.29;52.42;97379.16;5377308;26;20248;-28
2024/04/19 05:26:31;;;;;;;5.00;4.20;;;;;;;20.26;50.40;97372.28;5378269;26;20232;-28
2024/04/19 05:28:57;;;;;;;5.47;4.97;;;;;;;20.07;48.53;97343.53;5379822;26;20243;-27
2024/04/19 05:31:24;;;;;;;5.83;5.33;;;;;;;20.23;47.35;97358.53;5380596;26;20570;-26
2024/04/19 05:33:54;;;;;;;6.33;5.30;;;;;;;20.22;47.17;97364.47;5366544;26;20805;-29
2024/04/19 05:36:20;;;;;;;6.27;5.40;;;;;;;20.19;47.23;97364.38;5378598;26;20231;-26
2024/04/19 05:38:47;;;;;;;5.53;5.03;;;;;;;20.18;45.92;97362.63;5378482;26;20823;-26
2024/04/19 05:41:14;;;;;;;5.90;5.40;;;;;;;20.14;46.71;97360.78;5380982;26;20232;-28
2024/04/19 05:43:41;;;;;;;7.67;6.20;;;;;;;20.15;46.11;97357.41;5378573;26;20315;-26
2024/04/19 05:46:07;;;;;;;5.87;5.37;;;;;;;20.13;45.21;97361.63;5372713;26;20233;-28
2024/04/19 05:48:34;;;;;;;6.20;5.60;;;;;;;20.12;45.82;97364.94;5374490;26;20231;-27
2024/04/19 05:51:01;;;;;;;8.00;6.00;;;;;;;20.12;46.66;97370.03;5364902;26;20235;-26
2024/04/19 05:53:27;;;;;;;13.80;5.87;;;;;;;20.11;47.66;97368.31;5353280;26;20245;-28
2024/04/19 05:55:54;;;;;;;5.77;5.27;;;;;;;20.10;47.12;97375.09;5353839;26;20233;-27
2024/04/19 05:58:22;;;;;;;6.10;5.60;;;;;;;20.10;46.55;97361.50;5370515;26;20266;-27
2024/04/19 06:00:48;;;;;;;6.07;5.50;;;;;;;20.10;46.59;97357.22;5372891;26;20235;-26
2024/04/19 06:03:15;;;;;;;6.63;5.67;;;;;;;20.11;47.42;97355.56;5383551;26;20290;-28
2024/04/19 06:05:45;;;;;;;6.20;5.50;;;;;;;20.15;48.11;97365.94;5383308;26;20799;-28
2024/04/19 06:08:12;;;;;;;6.20;5.60;;;;;;;20.15;48.31;97358.28;5384041;26;20227;-26
2024/04/19 06:10:40;;;;;;;7.23;6.53;;;;;;;20.13;46.22;97359.91;5378911;26;20227;-27
2024/04/19 06:13:07;;;;;;;7.47;6.70;;;;;;;20.14;45.99;97360.78;5358742;26;20835;-29
2024/04/19 06:15:33;;;;;;;6.83;6.20;;;;;;;20.13;47.13;97356.53;5363515;26;20224;-27
2024/04/19 06:18:00;;;;;;;6.40;5.80;;;;;;;20.13;47.95;97353.97;5364808;26;20532;-34
2024/04/19 06:20:27;;;;;;;6.40;5.80;;;;;;;20.14;48.53;97356.56;5378311;26;20232;-28
2024/04/19 06:22:53;;;;;;;6.87;6.23;;;;;;;20.07;49.64;97341.84;5366109;26;20625;-28
2024/04/19 06:25:20;;;;;;;6.50;5.90;;;;;;;20.13;50.09;97359.06;5379478;26;20231;-29
2024/04/19 06:27:47;;;;;;;6.47;5.67;;;;;;;20.16;50.96;97357.47;5360670;26;20344;-26
2024/04/19 06:30:15;;;;;;;6.10;5.50;;;;;;;20.13;51.27;97349.72;5368078;26;20240;-28
2024/04/19 06:32:41;;;;;;;6.03;5.27;;;;;;;20.15;49.80;97353.19;5376344;26;20240;-33
2024/04/19 06:35:09;;;;;;;6.37;5.60;;;;;;;20.16;50.67;97344.72;5366181;26;20285;-29
2024/04/19 06:37:36;;;;;;;5.97;5.37;;;;;;;20.17;51.00;97345.59;5361431;26;20270;-35
2024/04/19 06:40:02;;;;;;;6.57;5.13;;;;;;;20.17;51.34;97337.94;5373050;26;20262;-30
2024/04/19 06:42:33;;;;;;;5.57;4.60;;;;;;;20.17;52.31;97330.28;5363730;26;20348;-35
2024/04/19 06:45:00;;;;;;;5.37;4.87;;;;;;;20.17;52.17;97318.41;5356102;26;20305;-28
2024/04/19 06:47:27;;;;;;;5.10;4.23;;;;;;;20.17;52.82;97315.84;5352119;26;20263;-30
2024/04/19 06:49:54;;;;;;;5.70;4.30;;;;;;;20.08;52.94;97290.00;5374741;26;20687;-32
2024/04/19 06:52:21;;;;;;;5.37;4.63;;;;;;;20.19;52.58;97303.97;5370159;26;20243;-29
2024/04/19 06:54:47;;;;;;;5.00;4.60;;;;;;;20.18;53.29;97316.69;5371480;26;20227;-27
2024/04/19 06:57:14;;;;;;;4.97;4.47;;;;;;;20.19;52.63;97318.44;5378168;26;20275;-38
2024/04/19 06:59:42;;;;;;;3.97;3.67;;;;;;;20.19;52.89;97318.44;5371030;26;20275;-25
2024/04/19 07:02:09;;;;;;;5.20;4.53;;;;;;;20.20;53.25;97313.38;5377711;26;20235;-29
2024/04/19 07:04:36;;;;;;;4.17;3.87;;;;;;;20.12;53.29;97302.03;5364052;26;20579;-34
2024/04/19 07:07:03;;;;;;;4.00;3.70;;;;;;;20.23;53.49;97317.72;5358911;26;20255;-29
2024/04/19 07:09:29;;;;;;;4.37;3.97;;;;;;;20.23;53.11;97315.16;5350736;26;20260;-28
2024/04/19 07:11:56;;;;;;;4.50;3.73;;;;;;;20.23;53.51;97307.50;5346742;26;20336;-29
2024/04/19 07:14:23;;;;;;;4.10;3.70;;;;;;;20.23;53.19;97310.06;5364419;26;20304;-28
2024/04/19 07:16:49;;;;;;;4.40;4.00;;;;;;;20.23;53.81;97310.94;5363061;26;20317;-33
2024/04/19 07:19:16;;;;;;;3.83;3.50;;;;;;;20.23;53.94;97304.94;5367480;26;20337;-34
2024/04/19 07:21:43;;;;;;;3.67;3.30;;;;;;;20.24;53.57;97299.91;5374046;26;20236;-28
2024/04/19 07:24:10;;;;;;;3.57;3.23;;;;;;;20.24;53.31;97299.91;5373342;26;20232;-30
2024/04/19 07:26:38;;;;;;;3.90;3.60;;;;;;;20.24;53.54;97289.69;5372802;26;20223;-27
2024/04/19 07:29:05;;;;;;;3.90;3.60;;;;;;;20.25;53.96;97285.47;5376601;26;20231;-25
2024/04/19 07:31:32;;;;;;;5.43;3.77;;;;;;;20.24;54.27;97291.38;5373817;26;20274;-28
2024/04/19 07:33:58;;;;;;;7.47;3.93;;;;;;;20.25;53.89;97285.47;5375828;26;20256;-30
2024/04/19 07:36:25;;;;;;;5.03;3.60;;;;;;;20.23;54.45;97277.75;5377281;26;20332;-25
2024/04/19 07:38:52;;;;;;;7.27;3.80;;;;;;;20.24;54.27;97278.59;5376100;26;20758;-35
2024/04/19 07:41:19;;;;;;;3.57;3.27;;;;;;;20.24;53.98;97282.03;5363758;26;20610;-29
2024/04/19 07:43:45;;;;;;;4.10;3.70;;;;;;;20.24;54.61;97270.94;5357421;26;20239;-28
2024/04/19 07:46:21;;;;;;;6.53;3.17;;;;;;;20.23;54.21;97266.69;5369915;26;20231;-31
2024/04/19 07:48:48;;;;;;;4.60;3.53;;;;;;;20.25;54.43;97267.59;5360559;26;20267;-35
2024/04/19 07:51:14;;;;;;;4.33;3.07;;;;;;;20.24;54.36;97263.28;5357498;26;20279;-30
2024/04/19 07:53:42;;;;;;;4.00;3.33;;;;;;;20.24;54.39;97259.06;5370302;26;20255;-27
2024/04/19 07:56:09;;;;;;;4.07;3.13;;;;;;;20.24;54.13;97258.19;5364237;26;20236;-40
2024/04/19 07:58:35;;;;;;;4.17;3.17;;;;;;;20.24;54.71;97253.09;5361864;26;20266;-27
2024/04/19 08:01:03;;;;;;;7.70;3.13;;;;;;;20.25;54.59;97252.28;5377649;26;20265;-27
2024/04/19 08:03:30;;;;;;;3.87;3.20;;;;;;;20.25;54.82;97247.19;5376370;26;20344;-29
2024/04/19 08:05:57;;;;;;;3.30;3.00;;;;;;;20.26;54.79;97246.34;5372903;26;20240;-33
2024/04/19 08:08:24;;;;;;;4.83;3.20;;;;;;;20.26;54.81;97249.78;5373014;26;20255;-29
2024/04/19 08:10:50;;;;;;;4.97;3.13;;;;;;;20.28;54.79;97245.56;5354928;26;20774;-29
2024/04/19 08:13:17;;;;;;;3.40;3.10;;;;;;;20.28;54.32;97235.38;5370350;26;20240;-31
2024/04/19 08:15:44;;;;;;;3.40;2.87;;;;;;;20.28;54.77;97229.41;5354889;26;20259;-27
2024/04/19 08:18:10;;;;;;;4.20;3.20;;;;;;;20.29;54.70;97226.03;5352007;26;20731;-31
2024/04/19 08:20:37;;;;;;;3.10;2.80;;;;;;;20.28;54.70;97216.66;5366032;26;20258;-29
2024/04/19 08:23:04;;;;;;;3.73;3.10;;;;;;;20.28;54.45;97212.41;5369571;26;20251;-34
2024/04/19 08:25:30;;;;;;;3.33;3.00;;;;;;;20.28;54.37;97204.75;5357028;26;20529;-27
2024/04/19 08:27:58;;;;;;;3.17;2.77;;;;;;;20.28;54.64;97202.19;5359265;26;20232;-28
2024/04/19 08:30:25;;;;;;;3.00;2.70;;;;;;;20.28;54.48;97197.09;5377163;26;20228;-29
2024/04/19 08:32:52;;;;;;;3.47;2.80;;;;;;;20.29;54.60;97191.19;5363126;26;20275;-27
2024/04/19 08:35:19;;;;;;;4.87;2.77;;;;;;;20.30;54.74;97189.47;5368313;26;20326;-29
2024/04/19 08:37:45;;;;;;;3.07;2.77;;;;;;;20.30;54.69;97181.81;5352429;26;20236;-28
2024/04/19 08:40:12;;;;;;;4.00;2.80;;;;;;;20.23;54.80;97151.84;5351915;26;20361;-31
2024/04/19 08:42:39;;;;;;;4.87;2.97;;;;;;;20.28;54.97;97163.06;5360417;26;20653;-29
2024/04/19 08:45:06;;;;;;;3.53;2.70;;;;;;;20.29;54.41;97165.66;5366034;26;20731;-30
2024/04/19 08:47:35;;;;;;;2.77;2.57;;;;;;;20.28;54.77;97156.25;5373918;26;20231;-30
2024/04/19 08:50:03;;;;;;;3.63;2.40;;;;;;;20.29;54.54;97149.47;5344322;26;20770;-28
2024/04/19 08:52:29;;;;;;;3.23;2.60;;;;;;;20.28;54.79;97146.06;5366207;26;20239;-28
2024/04/19 08:55:16;;;;;;;3.30;2.70;;;;;;;20.26;54.91;97141.75;5363950;26;20259;-27
2024/04/19 08:57:44;;;;;;;3.27;2.83;;;;;;;20.28;54.51;97135.84;5372519;26;20718;-26
2024/04/19 09:00:12;;;;;;;2.77;2.57;;;;;;;20.27;54.98;97139.22;5362674;26;20340;-29
2024/04/19 09:02:42;;;;;;;2.63;2.30;;;;;;;20.28;55.16;97135.00;5367964;26;20305;-30
2024/04/19 09:05:09;;;;;;;3.10;2.47;;;;;;;20.28;54.75;97123.09;5373511;26;20247;-27
2024/04/19 09:07:36;;;;;;;3.80;2.60;;;;;;;20.30;54.69;97118.03;5374192;26;20337;-29
2024/04/19 09:10:03;;;;;;;2.97;2.50;;;;;;;20.30;55.09;97112.91;5364491;26;20235;-27
2024/04/19 09:12:33;;;;;;;2.80;2.57;;;;;;;20.31;54.52;97104.47;5364280;26;20248;-28
2024/04/19 09:15:00;;;;;;;4.70;2.53;;;;;;;20.32;54.65;97096.84;5370368;26;20235;-31
2024/04/19 09:17:28;;;;;;;3.60;2.80;;;;;;;20.33;54.65;97110.44;5356959;26;20235;-29
2024/04/19 09:19:56;;;;;;;4.87;2.70;;;;;;;20.33;55.09;97098.56;5369840;26;20294;-35
2024/04/19 09:22:23;;;;;;;3.73;2.80;;;;;;;20.32;54.30;97094.28;5374980;26;20279;-29
2024/04/19 09:24:53;;;;;;;4.30;2.53;;;;;;;20.33;54.53;97090.03;5364735;26;20486;-30
2024/04/19 09:27:23;;;;;;;4.20;2.80;;;;;;;20.34;54.66;97084.97;5372581;26;20329;-27
2024/04/19 09:29:50;;;;;;;4.00;2.50;;;;;;;20.33;54.50;97079.81;5368293;26;20859;-27
2024/04/19 09:32:21;;;;;;;4.50;3.23;;;;;;;20.34;54.91;97079.88;5366028;26;20266;-34
2024/04/19 09:34:48;;;;;;;3.70;2.50;;;;;;;20.33;54.91;97065.38;5379725;26;20231;-28
2024/04/19 09:37:15;;;;;;;2.83;2.37;;;;;;;20.33;54.46;97067.06;5379410;26;20750;-27
2024/04/19 09:39:42;;;;;;;3.80;2.60;;;;;;;20.32;54.72;97053.47;5380668;26;20777;-31
2024/04/19 09:42:09;;;;;;;2.70;2.50;;;;;;;20.34;55.06;97053.50;5376074;26;20269;-31
2024/04/19 09:44:37;;;;;;;3.17;2.50;;;;;;;20.34;54.84;97040.75;5372628;26;20263;-26
2024/04/19 09:47:04;;;;;;;2.40;2.20;;;;;;;20.32;54.60;97035.59;5361151;26;20241;-28
2024/04/19 09:49:32;;;;;;;4.03;2.57;;;;;;;20.34;54.75;97036.47;5368218;26;20746;-30
2024/04/19 09:51:58;;;;;;;4.47;2.40;;;;;;;20.36;55.41;97011.88;5367711;26;20334;-27
2024/04/19 09:54:32;;;;;;;6.23;2.60;;;;;;;20.37;55.34;97012.75;5369279;26;20356;-36
2024/04/19 09:57:00;;;;;;;5.43;2.70;;;;;;;20.37;55.64;97016.16;5375117;26;20563;-28
2024/04/19 09:59:29;;;;;;;4.43;3.10;;;;;;;20.37;55.63;97003.38;5359462;26;20267;-25
2024/04/19 10:01:56;;;;;;;7.97;3.07;;;;;;;20.37;55.73;97000.84;5382528;26;20251;-29
2024/04/19 10:04:24;;;;;;;5.13;2.63;;;;;;;20.36;55.20;96994.00;5397587;26;20609;-27
2024/04/19 10:06:52;;;;;;;4.87;2.77;;;;;;;20.39;55.26;97003.44;5393789;26;20270;-28
2024/04/19 10:09:21;;;;;;;5.40;2.83;;;;;;;20.39;55.26;96993.22;5389468;26;20718;-28
2024/04/19 10:11:48;;;;;;;4.00;2.70;;;;;;;20.40;55.60;96987.31;5405452;26;20270;-28
2024/04/19 10:14:15;;;;;;;3.87;2.47;;;;;;;20.43;55.33;97003.53;5396587;26;20243;-27
2024/04/19 10:16:42;;;;;;;3.73;2.50;;;;;;;20.42;55.33;97001.81;5414735;26;20242;-36
2024/04/19 10:19:10;;;;;;;3.80;2.40;;;;;;;20.42;55.80;96994.16;5395928;26;20822;-28
2024/04/19 10:21:39;;;;;;;7.37;3.00;;;;;;;20.43;55.09;96995.03;5412878;26;20327;-27
2024/04/19 10:24:18;;;;;;;6.87;2.90;;;;;;;20.41;55.35;96977.16;5413881;26;20335;-29
2024/04/19 10:26:50;;;;;;;4.47;2.30;;;;;;;20.42;55.49;96983.09;5403570;26;20277;-32
2024/04/19 10:29:17;;;;;;;4.63;2.63;;;;;;;20.39;55.11;96973.69;5414567;26;20833;-28
2024/04/19 10:31:50;;;;;;;5.50;2.50;;;;;;;20.39;55.46;96976.22;5412670;26;20741;-32
2024/04/19 10:34:17;;;;;;;4.43;2.63;;;;;;;20.39;55.48;96971.13;5407828;26;20284;-28
2024/04/19 10:36:47;;;;;;;7.37;2.60;;;;;;;20.39;55.61;96966.03;5394695;26;20275;-32
2024/04/19 10:39:14;;;;;;;5.27;2.50;;;;;;;20.37;55.82;96965.09;5404377;26;20789;-32
2024/04/19 10:41:53;;;;;;;2.93;2.40;;;;;;;20.38;55.31;96961.75;5412371;26;20304;-28
2024/04/19 10:44:20;;;;;;;4.17;2.67;;;;;;;20.36;55.85;96949.75;5396903;26;20238;-29
2024/04/19 10:46:49;;;;;;;4.53;2.63;;;;;;;20.36;55.51;96950.63;5411937;26;20692;-26
2024/04/19 10:49:20;;;;;;;5.63;2.97;;;;;;;20.37;55.87;96942.13;5402081;26;20238;-29
2024/04/19 10:51:51;;;;;;;3.30;2.60;;;;;;;20.36;55.36;96925.13;5408569;26;20277;-35
2024/04/19 10:54:17;;;;;;;3.20;2.37;;;;;;;20.35;55.99;96928.50;5412697;26;20243;-26
2024/04/19 10:56:44;;;;;;;5.23;2.90;;;;;;;20.36;55.94;96934.44;5409386;26;20234;-29
2024/04/19 10:59:11;;;;;;;4.47;2.63;;;;;;;20.36;55.59;96926.78;5400780;26;20750;-28
2024/04/19 11:01:40;;;;;;;5.50;2.50;;;;;;;20.34;55.95;96924.19;5412749;26;20269;-26
2024/04/19 11:04:07;;;;;;;4.90;3.00;;;;;;;20.36;55.92;96919.13;5412089;26;20280;-26
2024/04/19 11:06:34;;;;;;;4.30;2.43;;;;;;;20.36;55.66;96911.47;5403365;26;20746;-25
2024/04/19 11:09:01;;;;;;;6.17;2.57;;;;;;;20.34;55.72;96908.91;5404679;26;20258;-31
2024/04/19 11:11:33;;;;;;;5.60;2.80;;;;;;;20.37;55.50;96910.69;5388766;26;20235;-29
2024/04/19 11:14:00;;;;;;;7.07;2.90;;;;;;;20.38;55.32;96900.50;5364954;26;20289;-28
2024/04/19 11:16:27;;;;;;;5.80;2.60;;;;;;;20.34;55.64;96887.63;5391457;26;20587;-36
2024/04/19 11:18:53;;;;;;;5.13;2.90;;;;;;;20.38;55.45;96894.53;5385771;26;20227;-28
2024/04/19 11:21:20;;;;;;;7.20;3.70;;;;;;;20.38;55.59;96894.53;5407264;26;20626;-31
2024/04/19 11:23:47;;;;;;;4.90;3.00;;;;;;;20.38;55.19;96889.44;5359080;26;20285;-29
2024/04/19 11:26:19;;;;;;;5.80;3.30;;;;;;;20.39;55.62;96886.91;5403936;26;20345;-25
2024/04/19 11:28:50;;;;;;;9.57;3.80;;;;;;;20.38;55.62;96890.31;5403666;26;20307;-27
2024/04/19 11:31:17;;;;;;;10.47;4.33;;;;;;;20.39;55.61;96893.69;5408602;26;20295;-32
2024/04/19 11:33:44;;;;;;;6.53;3.73;;;;;;;20.39;55.71;96884.34;5401986;26;20244;-33
2024/04/19 11:36:13;;;;;;;10.27;4.10;;;;;;;20.37;55.63;96875.78;5398549;26;20265;-25